createdAt,value
2023-01-03T00:01:13.496Z,4.47
2023-01-03T00:03:40.417Z,3.95
2023-01-03T00:06:20.579Z,4.15
2023-01-03T00:08:48.130Z,4.00
2023-01-03T00:11:41.236Z,4.03
2023-01-03T00:14:09.409Z,3.65
2023-01-03T00:16:36.358Z,4.40
2023-01-03T00:19:10.056Z,4.30
2023-01-03T00:21:37.791Z,4.28
2023-01-03T00:24:06.002Z,4.28
2023-01-03T00:26:33.336Z,4.53
2023-01-03T00:29:00.530Z,4.50
2023-01-03T00:31:27.608Z,3.70
2023-01-03T00:33:54.888Z,3.70
2023-01-03T00:36:22.087Z,3.85
2023-01-03T00:38:49.012Z,3.72
2023-01-03T00:41:17.875Z,4.05
2023-01-03T00:43:47.067Z,3.30
2023-01-03T00:46:15.870Z,3.60
2023-01-03T00:48:43.182Z,3.20
2023-01-03T00:51:19.364Z,2.97
2023-01-03T00:53:47.934Z,2.10
2023-01-03T00:56:19.964Z,2.10
2023-01-03T00:58:47.473Z,1.90
2023-01-03T01:01:21.677Z,2.13
2023-01-03T01:03:51.749Z,2.28
2023-01-03T01:06:27.479Z,2.05
2023-01-03T01:08:56.296Z,1.90
2023-01-03T01:11:24.220Z,1.95
2023-01-03T01:13:51.699Z,1.73
2023-01-03T01:16:27.913Z,1.60
2023-01-03T01:18:55.775Z,2.03
2023-01-03T01:21:28.983Z,1.80
2023-01-03T01:23:56.344Z,1.27
2023-01-03T01:26:24.973Z,0.95
2023-01-03T01:28:53.611Z,1.50
2023-01-03T01:31:24.118Z,1.27
2023-01-03T01:33:52.354Z,1.48
2023-01-03T01:36:22.529Z,1.20
2023-01-03T01:38:57.504Z,1.23
2023-01-03T01:41:43.653Z,0.90
2023-01-03T01:44:44.412Z,1.02
2023-01-03T01:47:17.933Z,1.00
2023-01-03T01:49:46.994Z,1.17
2023-01-03T01:52:16.243Z,0.80
2023-01-03T01:54:43.423Z,0.60
2023-01-03T01:57:14.960Z,0.63
2023-01-03T01:59:42.838Z,0.68
2023-01-03T02:02:11.552Z,0.50
2023-01-03T02:04:41.029Z,0.43
2023-01-03T02:07:08.197Z,0.40
2023-01-03T02:09:35.672Z,0.60
2023-01-03T02:13:01.863Z,0.40
2023-01-03T02:15:55.183Z,1.10
2023-01-03T02:18:36.951Z,1.75
2023-01-03T02:21:22.395Z,1.50
2023-01-03T02:24:18.252Z,0.70
2023-01-03T02:27:02.901Z,0.70
2023-01-03T02:29:48.510Z,0.40
2023-01-03T02:32:55.568Z,0.30
2023-01-03T02:35:30.131Z,0.30
2023-01-03T02:38:31.436Z,0.30
2023-01-03T02:41:08.275Z,0.32
2023-01-03T02:43:43.761Z,0.17
2023-01-03T02:46:24.616Z,0.20
2023-01-03T02:49:05.290Z,0.20
2023-01-03T02:51:45.946Z,0.25
2023-01-03T02:54:17.808Z,0.15
2023-01-03T02:56:48.642Z,0.43
2023-01-03T02:59:19.985Z,0.73
2023-01-03T03:01:51.196Z,0.80
2023-01-03T03:04:20.024Z,0.60
2023-01-03T03:06:50.367Z,0.40
2023-01-03T03:09:17.300Z,0.30
2023-01-03T03:12:03.499Z,0.20
2023-01-03T03:14:47.433Z,0.38
2023-01-03T03:17:19.636Z,0.50
2023-01-03T03:20:10.620Z,0.20
2023-01-03T03:23:04.450Z,0.20
2023-01-03T03:25:41.731Z,0.40
2023-01-03T03:28:32.610Z,0.15
2023-01-03T03:31:08.415Z,0.20
2023-01-03T03:34:07.781Z,0.20
2023-01-03T03:36:51.975Z,0.20
2023-01-03T03:39:37.844Z,0.10
2023-01-03T03:42:49.080Z,0.20
2023-01-03T03:45:42.045Z,0.10
2023-01-03T03:48:11.845Z,1.35
2023-01-03T03:51:06.326Z,0.20
2023-01-03T03:53:37.012Z,0.10
2023-01-03T03:56:09.747Z,0.10
2023-01-03T03:58:40.954Z,0.20
2023-01-03T04:01:09.863Z,0.10
2023-01-03T04:03:41.144Z,0.10
2023-01-03T04:06:30.815Z,0.10
2023-01-03T04:08:58.477Z,0.30
2023-01-03T04:11:26.616Z,0.10
2023-01-03T04:13:53.498Z,0.20
2023-01-03T04:16:20.606Z,0.20
2023-01-03T04:18:47.542Z,0.10
2023-01-03T04:21:20.974Z,0.10
2023-01-03T04:23:48.516Z,0.40
2023-01-03T04:26:15.624Z,0.30
2023-01-03T04:28:42.597Z,0.20
2023-01-03T04:31:09.706Z,0.28
2023-01-03T04:33:36.906Z,0.50
2023-01-03T04:36:07.008Z,0.40
2023-01-03T04:38:33.931Z,0.90
2023-01-03T04:41:08.788Z,1.00
2023-01-03T04:43:54.488Z,0.90
2023-01-03T04:46:21.979Z,0.20
2023-01-03T04:48:49.344Z,0.30
2023-01-03T04:51:16.314Z,0.40
2023-01-03T04:53:45.767Z,0.40
2023-01-03T04:56:12.706Z,0.28
2023-01-03T04:58:39.696Z,0.32
2023-01-03T05:01:08.443Z,0.32
2023-01-03T05:03:35.889Z,0.40
2023-01-03T05:06:05.326Z,0.20
2023-01-03T05:08:32.224Z,0.20
2023-01-03T05:10:59.269Z,0.30
2023-01-03T05:13:26.401Z,1.02
2023-01-03T05:15:53.823Z,2.47
2023-01-03T05:18:20.795Z,2.08
2023-01-03T05:21:06.206Z,1.00
2023-01-03T05:23:51.946Z,0.30
2023-01-03T05:26:20.892Z,0.30
2023-01-03T05:28:51.721Z,0.55
2023-01-03T05:31:20.605Z,0.80
2023-01-03T05:33:47.594Z,0.90
2023-01-03T05:36:16.396Z,0.60
2023-01-03T05:38:43.796Z,0.30
2023-01-03T05:41:12.922Z,0.50
2023-01-03T05:43:39.999Z,0.52
2023-01-03T05:46:06.942Z,0.40
2023-01-03T05:48:34.002Z,0.40
2023-01-03T05:51:00.950Z,0.30
2023-01-03T05:53:27.818Z,0.40
2023-01-03T05:55:54.675Z,0.30
2023-01-03T05:58:21.709Z,0.30
2023-01-03T06:00:48.705Z,0.30
2023-01-03T06:03:15.604Z,0.30
2023-01-03T06:05:49.534Z,0.40
2023-01-03T06:08:17.447Z,0.90
2023-01-03T06:10:44.356Z,3.25
2023-01-03T06:13:11.547Z,2.03
2023-01-03T06:15:41.284Z,1.00
2023-01-03T06:18:08.142Z,0.60
2023-01-03T06:20:35.083Z,0.60
2023-01-03T06:23:01.958Z,1.20
2023-01-03T06:25:28.875Z,1.40
2023-01-03T06:27:55.780Z,1.27
2023-01-03T06:30:22.800Z,1.30
2023-01-03T06:32:52.878Z,0.90
2023-01-03T06:35:19.825Z,1.00
2023-01-03T06:37:46.810Z,1.23
2023-01-03T06:40:13.704Z,1.30
2023-01-03T06:42:42.545Z,1.20
2023-01-03T06:45:30.512Z,1.20
2023-01-03T06:48:16.327Z,1.20
2023-01-03T06:51:02.546Z,2.00
2023-01-03T06:53:48.812Z,1.58
2023-01-03T06:56:15.679Z,1.35
2023-01-03T06:58:42.590Z,0.68
2023-01-03T07:01:09.695Z,0.57
2023-01-03T07:03:36.745Z,0.80
2023-01-03T07:06:03.658Z,1.40
2023-01-03T07:08:32.710Z,2.00
2023-01-03T07:10:59.587Z,2.03
2023-01-03T07:13:45.360Z,1.20
2023-01-03T07:16:16.677Z,1.10
2023-01-03T07:18:50.867Z,1.02
2023-01-03T07:21:26.457Z,1.30
2023-01-03T07:23:55.033Z,0.90
2023-01-03T07:26:24.327Z,0.80
2023-01-03T07:28:52.607Z,1.40
2023-01-03T07:31:19.627Z,2.10
2023-01-03T07:33:46.664Z,1.90
2023-01-03T07:36:15.625Z,1.30
2023-01-03T07:38:44.491Z,0.98
2023-01-03T07:41:12.970Z,1.95
2023-01-03T07:43:42.484Z,2.10
2023-01-03T07:46:23.590Z,3.90
2023-01-03T07:51:20.616Z,2.40
2023-01-03T07:53:51.526Z,1.58
2023-01-03T07:56:20.111Z,1.10
2023-01-03T07:58:48.425Z,0.70
2023-01-03T08:01:23.683Z,0.80
2023-01-03T08:03:51.396Z,0.80
2023-01-03T08:06:21.903Z,0.70
2023-01-03T08:09:07.467Z,1.27
2023-01-03T08:11:53.262Z,1.63
2023-01-03T08:14:25.626Z,1.40
2023-01-03T08:16:52.826Z,1.65
2023-01-03T08:19:19.800Z,2.00
2023-01-03T08:21:46.738Z,1.92
2023-01-03T08:24:13.637Z,1.30
2023-01-03T08:26:40.548Z,1.20
2023-01-03T08:29:07.653Z,1.10
2023-01-03T08:31:40.126Z,0.80
2023-01-03T08:34:16.961Z,1.08
2023-01-03T08:36:51.912Z,1.30
2023-01-03T08:39:27.715Z,1.30
2023-01-03T08:42:06.701Z,1.27
2023-01-03T08:44:34.050Z,1.05
2023-01-03T08:47:04.116Z,1.55
2023-01-03T08:49:32.374Z,0.70
2023-01-03T08:51:59.328Z,0.50
2023-01-03T08:54:26.199Z,0.50
2023-01-03T08:56:53.072Z,0.60
2023-01-03T08:59:20.044Z,0.80
2023-01-03T09:01:47.142Z,0.80
2023-01-03T09:04:14.253Z,0.70
2023-01-03T09:06:41.260Z,0.50
2023-01-03T09:09:09.753Z,0.90
2023-01-03T09:11:36.743Z,0.90
2023-01-03T09:14:03.651Z,1.20
2023-01-03T09:16:32.999Z,1.67
2023-01-03T09:19:00.283Z,1.70
2023-01-03T09:21:28.580Z,1.67
2023-01-03T09:23:56.365Z,1.83
2023-01-03T09:26:23.257Z,1.30
2023-01-03T09:28:50.357Z,1.02
2023-01-03T09:31:17.381Z,0.93
2023-01-03T09:33:44.334Z,1.05
2023-01-03T09:36:11.183Z,1.20
2023-01-03T09:38:38.133Z,0.65
2023-01-03T09:41:13.625Z,0.80
2023-01-03T09:43:43.745Z,1.23
2023-01-03T09:46:21.088Z,2.60
2023-01-03T09:48:49.073Z,3.20
2023-01-03T09:51:51.219Z,2.33
2023-01-03T09:54:47.209Z,2.00
2023-01-03T09:57:43.901Z,2.65
2023-01-03T10:00:52.093Z,1.95
2023-01-03T10:03:51.483Z,1.52
2023-01-03T10:06:47.613Z,1.70
2023-01-03T10:09:28.927Z,1.80
2023-01-03T10:12:38.420Z,1.75
2023-01-03T10:15:37.570Z,2.00
2023-01-03T10:18:18.455Z,1.17
2023-01-03T10:21:07.680Z,1.30
2023-01-03T10:23:35.954Z,1.27
2023-01-03T10:26:12.553Z,1.10
2023-01-03T10:28:43.745Z,0.85
2023-01-03T10:31:44.387Z,1.10
2023-01-03T10:34:12.228Z,1.38
2023-01-03T10:36:39.159Z,0.80
2023-01-03T10:39:08.731Z,0.73
2023-01-03T10:41:46.743Z,0.75
2023-01-03T10:44:33.396Z,1.10
2023-01-03T10:47:10.383Z,1.10
2023-01-03T10:49:37.283Z,1.00
2023-01-03T10:52:16.791Z,0.98
2023-01-03T10:54:54.850Z,0.60
2023-01-03T10:57:39.668Z,0.70
2023-01-03T11:00:26.996Z,0.70
2023-01-03T11:02:55.245Z,0.70
2023-01-03T11:05:25.328Z,0.60
2023-01-03T11:08:22.615Z,0.57
2023-01-03T11:10:59.764Z,0.55
2023-01-03T11:13:42.173Z,0.57
2023-01-03T11:16:17.629Z,0.63
2023-01-03T11:18:58.797Z,0.63
2023-01-03T11:24:40.653Z,0.73
2023-01-03T11:27:27.471Z,0.80
2023-01-03T11:30:25.526Z,0.77
2023-01-03T11:33:24.048Z,0.98
2023-01-03T11:35:58.849Z,1.00
2023-01-03T11:38:28.523Z,0.85
2023-01-03T11:41:09.173Z,1.27
2023-01-03T11:43:48.269Z,1.73
2023-01-03T11:46:48.932Z,1.90
2023-01-03T11:49:40.384Z,1.30
2023-01-03T11:52:28.895Z,0.80
2023-01-03T11:55:33.024Z,0.80
2023-01-03T11:58:38.289Z,0.77
2023-01-03T12:01:23.657Z,1.27
2023-01-03T12:03:59.362Z,1.00
2023-01-03T12:06:28.976Z,1.17
2023-01-03T12:09:08.209Z,0.82
2023-01-03T12:11:47.598Z,0.80
2023-01-03T12:14:37.885Z,0.85
2023-01-03T12:17:16.155Z,0.73
2023-01-03T12:19:57.349Z,0.80
2023-01-03T12:25:06.005Z,0.88
2023-01-03T12:27:38.552Z,1.20
2023-01-03T12:30:14.565Z,0.80
2023-01-03T12:32:56.082Z,0.40
2023-01-03T12:35:46.772Z,0.65
2023-01-03T12:38:13.876Z,0.82
2023-01-03T12:40:58.932Z,0.98
2023-01-03T12:43:39.033Z,0.70
2023-01-03T12:46:18.666Z,0.70
2023-01-03T12:49:03.002Z,0.68
2023-01-03T12:51:30.291Z,0.60
2023-01-03T12:54:26.055Z,0.68
2023-01-03T12:57:20.757Z,0.70
2023-01-03T13:00:25.808Z,0.90
2023-01-03T13:03:01.619Z,1.00
2023-01-03T13:05:35.479Z,0.80
2023-01-03T13:08:16.882Z,0.47
2023-01-03T13:10:48.710Z,0.60
2023-01-03T13:13:18.974Z,0.80
2023-01-03T13:15:46.903Z,0.95
2023-01-03T13:18:23.047Z,1.35
2023-01-03T13:20:54.652Z,0.80
2023-01-03T13:23:58.097Z,0.82
2023-01-03T13:26:27.226Z,1.25
2023-01-03T13:29:32.559Z,1.60
2023-01-03T13:32:22.654Z,0.90
2023-01-03T13:34:58.124Z,0.80
2023-01-03T13:37:25.629Z,1.10
2023-01-03T13:39:52.476Z,1.00
2023-01-03T13:42:40.008Z,0.95
2023-01-03T13:45:15.746Z,0.80
2023-01-03T13:47:47.493Z,0.80
2023-01-03T13:50:20.907Z,0.82
2023-01-03T13:52:59.535Z,0.90
2023-01-03T13:55:59.126Z,0.68
2023-01-03T13:58:40.389Z,0.65
2023-01-03T14:01:29.668Z,0.85
2023-01-03T14:04:02.126Z,0.70
2023-01-03T14:06:47.616Z,0.80
2023-01-03T14:09:29.888Z,0.70
2023-01-03T14:12:03.820Z,0.55
2023-01-03T14:14:36.190Z,0.73
2023-01-03T14:17:04.475Z,0.80
2023-01-03T14:19:35.062Z,0.57
2023-01-03T14:22:29.857Z,0.70
2023-01-03T14:24:59.650Z,0.60
2023-01-03T14:27:32.717Z,0.70
2023-01-03T14:30:00.865Z,0.63
2023-01-03T14:32:35.256Z,1.00
2023-01-03T14:35:03.204Z,0.70
2023-01-03T14:37:33.202Z,0.98
2023-01-03T14:40:03.768Z,0.70
2023-01-03T14:42:30.935Z,0.88
2023-01-03T14:45:04.162Z,0.90
2023-01-03T14:47:41.432Z,1.02
2023-01-03T14:50:21.194Z,1.00
2023-01-03T14:52:56.722Z,1.67
2023-01-03T14:55:27.958Z,0.68
2023-01-03T14:57:55.996Z,0.82
2023-01-03T15:00:36.240Z,0.90
2023-01-03T15:03:04.250Z,4.00
2023-01-03T15:05:33.916Z,8.40
2023-01-03T15:08:13.088Z,9.27
2023-01-03T15:10:51.394Z,7.60
2023-01-03T15:13:34.967Z,4.45
2023-01-03T15:16:19.264Z,3.28
2023-01-03T15:18:47.194Z,2.03
2023-01-03T15:21:18.804Z,1.40
2023-01-03T15:23:50.170Z,0.93
2023-01-03T15:26:34.846Z,0.52
2023-01-03T15:29:06.560Z,0.95
2023-01-03T15:31:37.326Z,0.80
2023-01-03T15:34:13.191Z,0.80
2023-01-03T15:36:41.071Z,0.98
2023-01-03T15:39:21.662Z,1.13
2023-01-03T15:44:55.130Z,2.10
2023-01-03T15:47:26.454Z,1.58
2023-01-03T15:49:57.829Z,1.40
2023-01-03T15:52:25.186Z,0.93
2023-01-03T15:54:52.234Z,1.05
2023-01-03T15:57:25.202Z,0.90
2023-01-03T15:59:59.300Z,0.90
2023-01-03T16:02:26.451Z,0.60
2023-01-03T16:04:54.561Z,1.10
2023-01-03T16:07:21.674Z,1.20
2023-01-03T16:09:49.092Z,1.30
2023-01-03T16:12:23.411Z,0.88
2023-01-03T16:14:53.613Z,0.73
2023-01-03T16:17:25.335Z,0.63
2023-01-03T16:19:53.268Z,0.95
2023-01-03T16:22:34.365Z,1.95
2023-01-03T16:25:01.670Z,0.90
2023-01-03T16:27:28.568Z,0.60
2023-01-03T16:29:55.445Z,0.68
2023-01-03T16:32:26.108Z,0.75
2023-01-03T16:35:00.729Z,0.95
2023-01-03T16:37:27.881Z,0.85
2023-01-03T16:39:55.009Z,0.68
2023-01-03T16:42:27.730Z,0.68
2023-01-03T16:44:55.357Z,0.70
2023-01-03T16:47:24.413Z,0.40
2023-01-03T16:50:00.772Z,0.68
2023-01-03T16:52:33.807Z,0.70
2023-01-03T16:55:27.127Z,0.60
2023-01-03T16:57:55.391Z,0.60
2023-01-03T17:00:28.279Z,0.70
2023-01-03T17:03:01.021Z,0.60
2023-01-03T17:05:32.962Z,0.40
2023-01-03T17:08:24.690Z,0.52
2023-01-03T17:10:54.975Z,0.77
2023-01-03T17:13:34.003Z,0.55
2023-01-03T17:16:01.907Z,0.55
2023-01-03T17:18:31.681Z,1.00
2023-01-03T17:21:06.490Z,0.85
2023-01-03T17:23:37.998Z,0.70
2023-01-03T17:26:06.017Z,1.00
2023-01-03T17:28:35.160Z,0.98
2023-01-03T17:31:02.144Z,0.90
2023-01-03T17:33:33.951Z,1.30
2023-01-03T17:36:01.569Z,0.80
2023-01-03T17:38:35.099Z,0.60
2023-01-03T17:41:02.136Z,0.90
2023-01-03T17:43:29.055Z,0.90
2023-01-03T17:46:23.099Z,1.00
2023-01-03T17:49:08.964Z,1.10
2023-01-03T17:51:36.038Z,1.10
2023-01-03T17:54:03.069Z,0.77
2023-01-03T17:56:30.214Z,0.80
2023-01-03T17:58:57.397Z,0.50
2023-01-03T18:01:24.643Z,0.60
2023-01-03T18:03:51.804Z,0.70
2023-01-03T18:06:22.345Z,0.90
2023-01-03T18:08:50.523Z,1.00
2023-01-03T18:11:20.946Z,0.82
2023-01-03T18:13:49.465Z,0.90
2023-01-03T18:16:18.970Z,1.00
2023-01-03T18:18:46.504Z,0.90
2023-01-03T18:21:17.919Z,0.70
2023-01-03T18:23:45.908Z,0.70
2023-01-03T18:26:16.294Z,0.60
2023-01-03T18:28:43.542Z,0.57
2023-01-03T18:31:15.522Z,0.40
2023-01-03T18:33:42.599Z,0.65
2023-01-03T18:36:30.941Z,0.77
2023-01-03T18:39:26.792Z,1.10
2023-01-03T18:41:53.928Z,1.10
2023-01-03T18:44:23.724Z,1.00
2023-01-03T18:46:51.841Z,1.40
2023-01-03T18:49:19.721Z,1.70
2023-01-03T18:51:48.988Z,1.20
2023-01-03T18:54:19.050Z,1.30
2023-01-03T18:56:46.261Z,0.70
2023-01-03T18:59:20.919Z,0.85
2023-01-03T19:01:48.112Z,0.70
2023-01-03T19:04:15.201Z,0.60
2023-01-03T19:06:45.511Z,0.70
2023-01-03T19:09:24.277Z,0.90
2023-01-03T19:11:53.289Z,0.80
2023-01-03T19:14:20.825Z,0.60
2023-01-03T19:16:47.854Z,0.93
2023-01-03T19:19:14.750Z,0.80
2023-01-03T19:21:45.356Z,0.88
2023-01-03T19:24:33.127Z,1.17
2023-01-03T19:27:21.054Z,1.35
2023-01-03T19:29:48.947Z,0.90
2023-01-03T19:32:22.258Z,4.15
2023-01-03T19:34:49.200Z,0.80
2023-01-03T19:37:16.275Z,0.60
2023-01-03T19:39:43.538Z,0.60
2023-01-03T19:42:38.554Z,0.70
2023-01-03T19:45:32.482Z,0.40
2023-01-03T19:48:13.493Z,0.70
2023-01-03T19:50:40.399Z,1.17
2023-01-03T19:53:07.458Z,1.02
2023-01-03T19:55:38.985Z,1.38
2023-01-03T19:58:24.792Z,1.40
2023-01-03T20:00:52.374Z,1.10
2023-01-03T20:03:33.127Z,0.90
2023-01-03T20:06:00.967Z,0.90
2023-01-03T20:08:28.361Z,0.88
2023-01-03T20:10:55.345Z,0.82
2023-01-03T20:13:26.105Z,0.70
2023-01-03T20:15:57.442Z,0.68
2023-01-03T20:18:27.894Z,6.82
2023-01-03T20:20:58.383Z,1.00
2023-01-03T20:23:27.562Z,0.60
2023-01-03T20:25:54.665Z,0.45
2023-01-03T20:28:29.372Z,0.77
2023-01-03T20:31:00.744Z,0.80
2023-01-03T20:33:28.726Z,0.60
2023-01-03T20:36:14.138Z,0.90
2023-01-03T20:38:46.918Z,1.20
2023-01-03T20:41:16.562Z,0.98
2023-01-03T20:43:44.243Z,0.82
2023-01-03T20:46:20.500Z,0.60
2023-01-03T20:48:56.032Z,0.68
2023-01-03T20:51:24.607Z,0.50
2023-01-03T20:53:54.775Z,0.60
2023-01-03T20:56:22.956Z,0.68
2023-01-03T20:58:49.961Z,0.85
2023-01-03T21:01:17.146Z,0.88
2023-01-03T21:03:44.546Z,1.00
2023-01-03T21:06:23.318Z,1.10
2023-01-03T21:08:57.029Z,1.13
2023-01-03T21:11:38.918Z,1.70
2023-01-03T21:14:06.362Z,1.20
2023-01-03T21:16:45.303Z,0.82
2023-01-03T21:19:16.667Z,0.63
2023-01-03T21:21:46.061Z,0.80
2023-01-03T21:24:14.730Z,0.75
2023-01-03T21:26:42.305Z,0.38
2023-01-03T21:29:12.012Z,0.40
2023-01-03T21:31:40.387Z,0.68
2023-01-03T21:34:13.871Z,0.70
2023-01-03T21:36:40.729Z,1.13
2023-01-03T21:39:07.684Z,1.27
2023-01-03T21:41:35.533Z,1.00
2023-01-03T21:44:04.015Z,1.00
2023-01-03T21:46:31.398Z,1.33
2023-01-03T21:48:58.374Z,1.08
2023-01-03T21:51:38.026Z,0.65
2023-01-03T21:54:07.813Z,0.55
2023-01-03T21:56:37.643Z,0.60
2023-01-03T21:59:04.587Z,0.63
2023-01-03T22:01:51.592Z,0.50
2023-01-03T22:04:19.615Z,0.60
2023-01-03T22:06:46.941Z,0.50
2023-01-03T22:09:33.988Z,0.70
2023-01-03T22:12:00.864Z,0.60
2023-01-03T22:14:27.712Z,0.52
2023-01-03T22:16:54.767Z,0.60
2023-01-03T22:19:21.699Z,1.50
2023-01-03T22:21:48.817Z,1.20
2023-01-03T22:24:16.007Z,1.20
2023-01-03T22:26:42.877Z,1.00
2023-01-03T22:29:09.780Z,0.95
2023-01-03T22:31:36.743Z,0.73
2023-01-03T22:34:04.327Z,0.57
2023-01-03T22:36:31.197Z,0.68
2023-01-03T22:38:58.163Z,1.00
2023-01-03T22:41:25.039Z,0.57
2023-01-03T22:43:53.066Z,0.70
2023-01-03T22:46:21.191Z,0.60
2023-01-03T22:48:48.250Z,0.63
2023-01-03T22:51:16.123Z,0.40
2023-01-03T22:53:44.464Z,1.27
2023-01-03T22:56:15.299Z,0.50
2023-01-03T22:58:43.158Z,0.40
2023-01-03T23:01:16.775Z,0.82
2023-01-03T23:03:47.700Z,0.60
2023-01-03T23:06:19.541Z,0.90
2023-01-03T23:08:51.409Z,0.50
2023-01-03T23:11:42.568Z,0.40
2023-01-03T23:16:38.079Z,0.35
2023-01-03T23:19:07.770Z,0.60
2023-01-03T23:21:35.601Z,0.60
2023-01-03T23:24:02.746Z,0.50
2023-01-03T23:26:29.725Z,0.60
2023-01-03T23:28:58.629Z,0.50
2023-01-03T23:31:27.683Z,0.50
2023-01-03T23:33:59.133Z,0.50
2023-01-03T23:36:26.835Z,0.43
2023-01-03T23:38:54.261Z,0.50
2023-01-03T23:41:22.773Z,0.70
2023-01-03T23:43:50.585Z,0.77
2023-01-03T23:46:22.699Z,0.82
2023-01-03T23:48:55.727Z,1.10
2023-01-03T23:51:22.721Z,1.30
2023-01-03T23:53:49.607Z,1.50
2023-01-03T23:56:19.191Z,1.20
2023-01-03T23:58:46.573Z,1.00
